createdAt,value
2022-12-27T16:20:04.813Z,1.20
2022-12-27T16:22:36.807Z,1.10
2022-12-27T16:24:45.808Z,1.00
2022-12-27T16:27:01.845Z,1.10
2022-12-27T16:47:43.881Z,1.00
2022-12-27T16:50:08.636Z,0.90
2022-12-27T16:52:59.515Z,0.90
2022-12-27T16:55:34.444Z,0.90
2022-12-27T16:57:46.493Z,0.90
2022-12-27T17:29:37.032Z,0.70
2022-12-27T17:31:54.741Z,0.70
2022-12-27T17:34:12.960Z,0.70
2022-12-27T17:36:40.084Z,0.70
2022-12-27T17:39:09.924Z,0.70
2022-12-27T17:41:51.035Z,0.60
2022-12-27T17:44:25.675Z,0.60
2022-12-27T17:46:44.876Z,0.60
2022-12-27T17:48:56.308Z,0.60
2022-12-27T17:51:11.206Z,0.70
2022-12-27T17:53:39.758Z,0.60
2022-12-27T17:56:19.266Z,0.70
2022-12-27T17:58:36.925Z,0.60
2022-12-27T18:00:56.200Z,0.50
2022-12-27T18:03:12.008Z,0.50
2022-12-27T18:05:27.212Z,0.60
2022-12-27T18:07:37.441Z,0.50
2022-12-27T18:09:48.057Z,0.60
2022-12-27T18:11:57.530Z,0.50
2022-12-27T18:14:06.400Z,0.50
2022-12-27T18:16:18.429Z,0.50
2022-12-27T18:18:33.744Z,0.50
2022-12-27T18:20:43.681Z,0.50
2022-12-27T18:22:52.684Z,0.40
2022-12-27T18:27:19.236Z,0.50
2022-12-27T18:29:28.398Z,0.50
2022-12-27T18:31:42.648Z,0.50
2022-12-27T18:33:55.128Z,0.60
2022-12-27T18:36:07.312Z,0.50
2022-12-27T18:38:22.517Z,0.60
2022-12-27T18:40:31.164Z,0.50
2022-12-27T18:42:44.961Z,0.50
2022-12-27T18:44:57.817Z,0.40
2022-12-27T18:47:07.257Z,0.40
2022-12-27T18:49:26.671Z,0.30
2022-12-27T18:51:37.228Z,0.30
2022-12-27T18:53:46.237Z,0.40
2022-12-27T18:56:00.635Z,0.40
2022-12-27T18:58:20.531Z,0.40
2022-12-27T19:00:30.861Z,0.40
2022-12-27T19:02:39.979Z,0.40
2022-12-27T19:05:25.661Z,0.40
2022-12-27T19:07:35.769Z,0.40
2022-12-27T19:09:51.708Z,0.30
2022-12-27T19:12:03.995Z,0.30
2022-12-27T19:14:16.054Z,0.40
2022-12-27T19:16:29.074Z,0.30
2022-12-27T19:18:39.674Z,0.30
2022-12-27T19:20:56.092Z,0.40
2022-12-27T19:23:09.147Z,0.30
2022-12-27T19:25:24.417Z,0.20
2022-12-27T19:27:33.778Z,0.30
2022-12-27T19:29:51.565Z,0.40
2022-12-27T19:32:04.915Z,0.40
2022-12-27T19:34:18.378Z,0.30
2022-12-27T19:36:31.964Z,0.30
2022-12-27T19:38:47.845Z,0.30
2022-12-27T19:41:03.292Z,0.30
2022-12-27T19:43:14.649Z,0.20
2022-12-27T19:45:23.481Z,0.20
2022-12-27T19:47:34.949Z,0.20
2022-12-27T19:49:44.701Z,0.30
2022-12-27T19:51:58.068Z,0.30
2022-12-27T19:54:14.592Z,0.10
2022-12-27T19:56:24.263Z,0.00
2022-12-27T19:58:33.173Z,0.10
2022-12-27T20:00:42.314Z,0.10
2022-12-27T20:02:50.940Z,0.10
2022-12-27T20:04:59.427Z,0.10
2022-12-27T20:07:18.186Z,0.00
2022-12-27T20:09:26.759Z,0.10
2022-12-27T20:11:35.586Z,0.00
2022-12-27T20:13:44.337Z,-0.10
2022-12-27T20:15:55.605Z,-0.10
2022-12-27T20:18:04.318Z,-0.10
2022-12-27T20:20:13.459Z,0.00
2022-12-27T20:22:23.780Z,0.00
2022-12-27T20:24:33.490Z,0.00
2022-12-27T20:26:43.201Z,0.00
2022-12-27T20:28:53.031Z,-0.10
2022-12-27T20:31:06.312Z,0.00
2022-12-27T20:33:15.991Z,0.00
2022-12-27T20:35:25.037Z,0.10
2022-12-27T20:37:35.626Z,0.00
2022-12-27T20:39:46.200Z,0.00
2022-12-27T20:41:56.069Z,0.00
2022-12-27T20:44:05.194Z,0.00
2022-12-27T20:46:16.727Z,0.00
2022-12-27T20:48:25.596Z,-0.10
2022-12-27T20:50:34.767Z,-0.10
2022-12-27T20:52:45.064Z,-0.20
2022-12-27T20:54:53.469Z,-0.30
2022-12-27T20:57:02.264Z,-0.20
2022-12-27T20:59:10.847Z,-0.20
2022-12-27T21:01:22.951Z,-0.20
2022-12-27T21:03:32.142Z,-0.30
2022-12-27T21:05:41.372Z,-0.30
2022-12-27T21:07:51.343Z,-0.20
2022-12-27T21:10:00.716Z,-0.10
2022-12-27T21:12:09.790Z,-0.10
2022-12-27T21:14:18.580Z,-0.20
2022-12-27T21:16:29.047Z,-0.30
2022-12-27T21:18:38.348Z,-0.30
2022-12-27T21:20:47.069Z,-0.30
2022-12-27T21:22:57.783Z,-0.30
2022-12-27T21:25:07.182Z,-0.20
2022-12-27T21:27:15.744Z,-0.10
2022-12-27T21:29:24.654Z,-0.20
2022-12-27T21:31:34.388Z,-0.20
2022-12-27T21:33:43.434Z,-0.30
2022-12-27T21:35:57.698Z,-0.30
2022-12-27T22:49:40.965Z,-0.50
2022-12-27T22:51:49.304Z,-0.40
2022-12-27T22:54:01.471Z,-0.50
2022-12-27T22:56:14.996Z,-0.50
2022-12-27T22:58:23.379Z,-0.40
2022-12-27T23:00:31.900Z,-0.60
2022-12-27T23:02:41.559Z,-0.60
2022-12-27T23:04:50.581Z,-0.70
2022-12-27T23:07:02.230Z,-0.60
2022-12-27T23:09:12.563Z,-0.60
2022-12-27T23:11:23.398Z,-0.50
2022-12-27T23:13:32.231Z,-0.60
2022-12-27T23:15:40.857Z,-0.70
2022-12-27T23:17:49.226Z,-0.70
2022-12-27T23:19:57.704Z,-0.80
2022-12-27T23:22:06.533Z,-0.70
2022-12-27T23:24:16.828Z,-0.70
2022-12-27T23:26:25.767Z,-0.70
2022-12-27T23:28:37.164Z,-0.70
2022-12-27T23:30:45.992Z,-0.80
2022-12-27T23:32:54.729Z,-0.70
2022-12-27T23:35:03.596Z,-0.80
2022-12-27T23:37:12.279Z,-0.80
2022-12-27T23:39:22.164Z,-0.80
2022-12-27T23:41:31.263Z,-0.80
2022-12-27T23:43:52.102Z,-0.80
2022-12-27T23:46:07.447Z,-0.90
2022-12-27T23:48:16.069Z,-0.90
2022-12-27T23:50:24.530Z,-0.90
2022-12-27T23:52:33.387Z,-0.90
2022-12-27T23:54:43.945Z,-0.80
2022-12-27T23:56:52.347Z,-0.90
2022-12-27T23:59:04.566Z,-0.90
